Time;durP1;ratioP1;P1;durP2;ratioP2;P2;SDS_P1;SDS_P2;PMS_P1;PMS_P2;Temp;Humidity;BMP_temperature;BMP_pressure;BME280_temperature;BME280_humidity;BME280_pressure;Samples;Min_cycle;Max_cycle;Signal;HPM_P1;HPM_P2
2022/04/08 00:00:18;;;;;;;7.60;5.70;;;11.60;56.40;;;;;;6291490;28;20182;-62
2022/04/08 00:03:19;;;;;;;6.27;5.13;;;11.50;57.20;;;;;;6258429;28;20293;-63
2022/04/08 00:06:21;;;;;;;7.80;5.53;;;11.30;58.10;;;;;;6290445;28;20189;-63
2022/04/08 00:09:21;;;;;;;7.83;5.47;;;11.10;58.80;;;;;;6257871;28;20219;-62
2022/04/08 00:12:22;;;;;;;6.90;5.40;;;11.00;58.80;;;;;;6261446;28;20208;-63
2022/04/08 00:15:23;;;;;;;5.87;4.90;;;10.90;59.20;;;;;;6291281;28;20289;-61
2022/04/08 00:18:24;;;;;;;7.83;5.80;;;10.80;59.80;;;;;;6291394;28;20198;-61
2022/04/08 00:21:25;;;;;;;5.77;5.20;;;10.70;60.10;;;;;;6252594;28;20262;-61
2022/04/08 00:24:26;;;;;;;5.23;4.73;;;10.60;60.70;;;;;;6270996;28;20222;-61
2022/04/08 00:27:27;;;;;;;8.93;6.13;;;10.40;61.90;;;;;;6290681;28;20296;-61
2022/04/08 00:30:28;;;;;;;8.27;5.37;;;10.30;62.50;;;;;;6257069;28;20225;-61
2022/04/08 00:33:31;;;;;;;7.53;5.33;;;10.20;62.70;;;;;;6257877;28;20260;-61
2022/04/08 00:36:32;;;;;;;7.03;5.17;;;10.10;63.30;;;;;;6274289;28;20198;-62
2022/04/08 00:39:33;;;;;;;6.50;5.27;;;10.10;63.60;;;;;;6307429;28;20196;-62
2022/04/08 00:42:35;;;;;;;9.03;5.30;;;10.10;63.30;;;;;;6290228;28;20192;-63
2022/04/08 00:45:36;;;;;;;6.83;4.70;;;10.00;63.60;;;;;;6282236;28;20273;-62
2022/04/08 00:48:38;;;;;;;6.40;5.23;;;9.90;63.70;;;;;;6224078;28;20196;-62
2022/04/08 00:51:39;;;;;;;5.27;4.77;;;9.90;63.40;;;;;;6273929;28;20190;-63
2022/04/08 00:54:41;;;;;;;6.97;4.83;;;9.80;63.70;;;;;;6254184;28;20289;-62
2022/04/08 00:57:42;;;;;;;7.70;5.27;;;9.80;64.30;;;;;;6249183;28;20195;-63
2022/04/08 01:00:43;;;;;;;6.77;4.63;;;9.80;64.00;;;;;;6236549;28;20261;-62
2022/04/08 01:03:44;;;;;;;6.97;5.07;;;9.80;63.80;;;;;;6273721;28;20217;-62
2022/04/08 01:06:45;;;;;;;6.70;5.20;;;9.80;64.40;;;;;;6285846;28;20201;-62
2022/04/08 01:09:47;;;;;;;5.33;4.83;;;9.70;64.50;;;;;;6258489;28;20211;-63
2022/04/08 01:12:50;;;;;;;5.20;4.70;;;9.60;65.10;;;;;;6249513;28;20217;-62
2022/04/08 01:15:51;;;;;;;6.43;4.13;;;9.60;65.20;;;;;;6272613;28;20191;-62
2022/04/08 01:18:52;;;;;;;6.13;4.57;;;9.70;63.90;;;;;;6237006;28;20204;-62
2022/04/08 01:21:53;;;;;;;6.80;5.17;;;9.60;65.60;;;;;;6253321;28;20272;-62
2022/04/08 01:25:01;;;;;;;7.43;4.80;;;9.40;65.30;;;;;;6289350;28;20227;-63
2022/04/08 01:28:02;;;;;;;5.60;5.00;;;9.30;65.60;;;;;;6256533;28;20242;-62
2022/04/08 01:31:03;;;;;;;8.97;5.60;;;9.30;66.20;;;;;;6297616;28;20189;-62
2022/04/08 01:34:03;;;;;;;5.83;4.80;;;9.30;66.20;;;;;;6257162;28;20193;-61
2022/04/08 01:37:04;;;;;;;6.27;4.87;;;9.20;66.70;;;;;;6290179;28;20264;-63
2022/04/08 01:40:06;;;;;;;6.37;4.77;;;9.10;66.90;;;;;;6289352;28;20264;-62
2022/04/08 01:43:07;;;;;;;7.00;4.90;;;9.00;67.30;;;;;;6256629;28;20232;-63
2022/04/08 01:46:07;;;;;;;6.87;5.30;;;9.00;67.70;;;;;;6260206;28;20189;-63
2022/04/08 01:49:08;;;;;;;4.90;4.43;;;8.90;67.80;;;;;;6216516;28;20284;-61
2022/04/08 01:52:10;;;;;;;8.23;4.90;;;8.80;68.00;;;;;;6248332;28;20194;-61
2022/04/08 01:55:11;;;;;;;7.63;5.23;;;8.80;68.20;;;;;;6247084;28;20198;-61
2022/04/08 01:58:11;;;;;;;6.87;4.73;;;8.70;68.70;;;;;;6272247;28;20331;-60
2022/04/08 02:01:12;;;;;;;5.73;5.00;;;8.70;68.80;;;;;;6289354;28;20189;-61
2022/04/08 02:04:13;;;;;;;5.60;4.77;;;8.60;69.40;;;;;;6296977;28;20274;-61
2022/04/08 02:07:14;;;;;;;7.47;4.17;;;8.60;69.40;;;;;;6267805;28;20189;-62
2022/04/08 02:10:15;;;;;;;5.37;4.47;;;8.50;69.40;;;;;;6256084;28;20189;-62
2022/04/08 02:13:16;;;;;;;5.60;4.70;;;8.40;69.90;;;;;;6283726;28;20194;-62
2022/04/08 02:16:17;;;;;;;6.17;4.47;;;8.30;70.00;;;;;;6277648;28;20170;-61
2022/04/08 02:19:18;;;;;;;6.00;4.50;;;8.40;70.20;;;;;;6284695;28;20210;-62
2022/04/08 02:22:20;;;;;;;4.97;4.47;;;8.30;69.80;;;;;;6249551;28;20289;-62
2022/04/08 02:25:21;;;;;;;5.77;4.23;;;8.40;69.60;;;;;;6268568;28;20276;-62
2022/04/08 02:28:22;;;;;;;7.00;4.47;;;8.30;69.90;;;;;;6235458;28;20334;-61
2022/04/08 02:31:23;;;;;;;7.27;4.73;;;8.40;69.80;;;;;;6255878;28;20173;-61
2022/04/08 02:34:24;;;;;;;5.70;4.10;;;8.30;70.30;;;;;;6260819;28;20173;-61
2022/04/08 02:37:25;;;;;;;5.93;4.30;;;8.30;70.60;;;;;;6260369;28;20200;-61
2022/04/08 02:40:25;;;;;;;5.13;3.73;;;8.30;70.80;;;;;;6260107;28;20625;-61
2022/04/08 02:43:26;;;;;;;6.47;3.50;;;8.20;71.10;;;;;;6232512;28;20217;-61
2022/04/08 02:46:27;;;;;;;5.37;3.83;;;8.20;71.10;;;;;;6260460;28;20641;-61
2022/04/08 02:49:28;;;;;;;5.97;3.47;;;8.20;70.90;;;;;;6260424;28;20280;-61
2022/04/08 02:52:29;;;;;;;4.40;4.00;;;8.20;70.80;;;;;;6276383;28;20207;-61
2022/04/08 02:55:29;;;;;;;6.63;4.10;;;8.10;71.10;;;;;;6276681;28;20199;-61
2022/04/08 02:58:30;;;;;;;5.03;3.73;;;8.00;71.10;;;;;;6284229;28;20236;-61
2022/04/08 03:01:31;;;;;;;6.13;4.23;;;8.00;71.50;;;;;;6266096;28;20198;-61
2022/04/08 03:04:32;;;;;;;4.40;4.00;;;7.90;71.80;;;;;;6259638;28;20300;-61
2022/04/08 03:07:33;;;;;;;8.27;4.87;;;7.80;72.00;;;;;;6294328;28;20185;-61
2022/04/08 03:10:34;;;;;;;6.63;4.13;;;7.70;72.20;;;;;;6291768;28;20188;-61
2022/04/08 03:13:35;;;;;;;5.63;4.60;;;7.70;72.70;;;;;;6294506;28;20196;-61
2022/04/08 03:16:36;;;;;;;5.27;4.77;;;7.50;72.90;;;;;;6295448;28;20253;-61
2022/04/08 03:19:36;;;;;;;6.13;4.20;;;7.50;73.20;;;;;;6281244;28;20200;-61
2022/04/08 03:22:37;;;;;;;7.07;4.07;;;7.50;73.60;;;;;;6308412;28;20253;-61
2022/04/08 03:25:38;;;;;;;5.77;4.63;;;7.40;74.00;;;;;;6304589;28;20268;-61
2022/04/08 03:28:39;;;;;;;6.27;4.90;;;7.50;74.10;;;;;;6278309;28;20284;-61
2022/04/08 03:31:40;;;;;;;4.70;4.13;;;7.50;74.30;;;;;;6281131;28;20228;-61
2022/04/08 03:34:40;;;;;;;5.57;4.23;;;7.50;74.00;;;;;;6277737;28;20201;-61
2022/04/08 03:37:41;;;;;;;4.37;3.97;;;7.60;74.00;;;;;;6275377;28;20200;-61
2022/04/08 03:40:42;;;;;;;4.73;4.23;;;7.60;73.80;;;;;;6280575;28;20231;-61
2022/04/08 03:43:43;;;;;;;4.50;3.67;;;7.70;73.80;;;;;;6277919;28;20291;-61
2022/04/08 03:46:45;;;;;;;5.77;4.10;;;7.70;73.30;;;;;;6277475;28;20197;-61
2022/04/08 03:49:46;;;;;;;4.80;4.30;;;7.70;73.30;;;;;;6271179;28;20202;-61
2022/04/08 03:52:47;;;;;;;4.90;4.40;;;7.70;73.50;;;;;;6282929;28;20193;-60
2022/04/08 03:55:48;;;;;;;4.97;4.30;;;7.60;73.80;;;;;;6271849;28;20251;-60
2022/04/08 03:58:49;;;;;;;6.00;4.20;;;7.60;73.80;;;;;;6271066;28;20197;-60
2022/04/08 04:01:50;;;;;;;6.53;3.60;;;7.70;73.70;;;;;;6255304;28;20201;-60
2022/04/08 04:04:51;;;;;;;6.53;4.93;;;7.70;73.70;;;;;;6267544;28;20217;-60
2022/04/08 04:07:52;;;;;;;5.83;4.63;;;7.70;73.90;;;;;;6259010;28;20198;-59
2022/04/08 04:10:53;;;;;;;8.93;5.30;;;7.70;74.00;;;;;;6221886;28;20195;-59
2022/04/08 04:13:53;;;;;;;5.33;3.97;;;7.70;73.50;;;;;;6224260;28;20648;-59
2022/04/08 04:16:54;;;;;;;5.07;4.53;;;7.80;73.60;;;;;;6244881;28;20294;-59
2022/04/08 04:19:55;;;;;;;5.73;4.33;;;7.80;73.90;;;;;;6226264;28;20212;-59
2022/04/08 04:22:56;;;;;;;5.77;4.20;;;7.80;74.10;;;;;;6257393;28;20550;-59
2022/04/08 04:25:57;;;;;;;6.13;4.20;;;7.80;73.50;;;;;;6274008;28;20194;-59
2022/04/08 04:28:58;;;;;;;3.47;3.17;;;7.90;73.60;;;;;;6252293;28;20240;-58
2022/04/08 04:31:59;;;;;;;5.80;4.27;;;7.80;73.70;;;;;;6310368;28;20189;-58
2022/04/08 04:35:06;;;;;;;6.33;4.03;;;7.80;74.20;;;;;;6290284;28;20704;-59
2022/04/08 04:38:07;;;;;;;5.87;4.47;;;7.80;73.90;;;;;;6286119;28;20188;-59
2022/04/08 04:41:07;;;;;;;4.90;4.30;;;7.70;74.30;;;;;;6286344;28;20199;-59
2022/04/08 04:44:08;;;;;;;6.37;4.50;;;7.70;74.40;;;;;;6277958;28;20306;-64
2022/04/08 04:47:09;;;;;;;5.57;4.27;;;7.60;74.50;;;;;;6279059;28;20197;-63
2022/04/08 04:50:10;;;;;;;5.03;4.53;;;7.60;74.70;;;;;;6279638;28;20189;-63
2022/04/08 04:53:11;;;;;;;4.87;4.47;;;7.60;74.90;;;;;;6296513;28;20271;-63
2022/04/08 04:56:12;;;;;;;6.30;4.73;;;7.60;75.00;;;;;;6280374;28;20180;-63
2022/04/08 04:59:12;;;;;;;4.30;3.90;;;7.60;74.80;;;;;;6292061;28;20205;-63
2022/04/08 05:02:13;;;;;;;4.73;3.70;;;7.60;74.90;;;;;;6274172;28;20196;-64
2022/04/08 05:05:14;;;;;;;5.03;4.20;;;7.60;74.90;;;;;;6268232;28;20216;-63
2022/04/08 05:08:15;;;;;;;4.83;3.87;;;7.60;75.20;;;;;;6284098;28;20188;-63
2022/04/08 05:11:16;;;;;;;4.20;3.80;;;7.60;75.40;;;;;;6274680;28;20189;-63
2022/04/08 05:14:17;;;;;;;4.73;4.30;;;7.70;75.30;;;;;;6282242;28;20274;-63
2022/04/08 05:17:18;;;;;;;8.80;6.07;;;7.70;75.40;;;;;;6295073;28;20191;-63
2022/04/08 05:20:19;;;;;;;10.57;8.13;;;7.70;75.30;;;;;;6276373;28;20195;-63
2022/04/08 05:23:20;;;;;;;13.33;9.43;;;7.70;75.20;;;;;;6297814;28;20216;-63
2022/04/08 05:26:21;;;;;;;15.30;10.07;;;7.70;75.10;;;;;;6280134;28;20287;-63
2022/04/08 05:29:22;;;;;;;9.80;8.37;;;7.80;75.60;;;;;;6295243;28;20246;-63
2022/04/08 05:32:23;;;;;;;11.00;8.50;;;7.80;75.20;;;;;;6253024;28;20198;-63
2022/04/08 05:35:23;;;;;;;9.33;6.97;;;7.80;75.20;;;;;;6306107;28;20250;-64
2022/04/08 05:38:24;;;;;;;7.73;6.37;;;7.80;75.10;;;;;;6289124;28;20246;-64
2022/04/08 05:41:25;;;;;;;12.37;8.37;;;7.80;75.40;;;;;;6298262;28;20199;-63
2022/04/08 05:44:26;;;;;;;11.87;10.63;;;7.90;75.40;;;;;;6272105;28;20210;-63
2022/04/08 05:47:28;;;;;;;10.03;8.37;;;7.90;75.70;;;;;;6259784;28;20185;-63
2022/04/08 05:50:29;;;;;;;11.00;9.50;;;8.00;75.30;;;;;;6258105;28;20193;-63
2022/04/08 05:53:30;;;;;;;7.50;6.43;;;8.10;75.30;;;;;;6283261;28;20319;-64
2022/04/08 05:56:31;;;;;;;9.17;6.87;;;8.20;75.80;;;;;;6282331;28;20205;-63
2022/04/08 05:59:33;;;;;;;9.87;6.90;;;8.30;76.30;;;;;;6299497;28;20200;-63
2022/04/08 06:02:33;;;;;;;10.00;7.37;;;8.30;76.10;;;;;;6282858;28;20228;-63
2022/04/08 06:05:35;;;;;;;8.73;7.30;;;8.30;75.90;;;;;;6284378;28;20226;-63
2022/04/08 06:08:37;;;;;;;6.57;5.47;;;8.30;74.90;;;;;;6266712;28;20192;-63
2022/04/08 06:11:37;;;;;;;12.97;6.30;;;8.40;74.30;;;;;;6282379;28;20186;-63
2022/04/08 06:14:38;;;;;;;6.33;5.10;;;8.50;74.00;;;;;;6299790;28;20207;-64
2022/04/08 06:17:40;;;;;;;7.37;4.80;;;8.60;73.80;;;;;;6265746;28;20193;-63
2022/04/08 06:20:40;;;;;;;7.73;5.30;;;8.70;73.20;;;;;;6299769;28;20729;-63
2022/04/08 06:23:41;;;;;;;7.47;6.00;;;8.80;73.20;;;;;;6266288;28;20213;-64
2022/04/08 06:26:42;;;;;;;8.13;5.43;;;8.90;73.90;;;;;;6265851;28;20201;-64
2022/04/08 06:29:42;;;;;;;7.77;5.33;;;9.00;74.30;;;;;;6276704;28;20276;-63
2022/04/08 06:32:43;;;;;;;6.73;4.63;;;9.10;73.20;;;;;;6274269;28;20185;-63
2022/04/08 06:35:44;;;;;;;5.77;5.20;;;9.30;72.20;;;;;;6264283;28;20205;-63
2022/04/08 06:38:45;;;;;;;8.97;5.47;;;9.40;72.20;;;;;;6276796;28;20204;-63
2022/04/08 06:41:46;;;;;;;11.83;5.77;;;9.50;71.60;;;;;;6265913;28;20225;-64
2022/04/08 06:44:47;;;;;;;6.87;5.07;;;9.60;72.10;;;;;;6274936;28;20206;-64
2022/04/08 06:47:48;;;;;;;8.03;5.80;;;9.70;72.30;;;;;;6291506;28;20189;-64
2022/04/08 06:50:49;;;;;;;5.03;4.53;;;9.80;70.90;;;;;;6272183;28;20194;-63
2022/04/08 06:53:50;;;;;;;8.20;5.20;;;9.90;70.90;;;;;;6275302;28;20252;-63
2022/04/08 06:56:51;;;;;;;6.60;5.20;;;10.00;70.90;;;;;;6274468;28;20217;-63
2022/04/08 06:59:52;;;;;;;6.00;5.33;;;10.30;70.30;;;;;;6297053;28;20243;-64
2022/04/08 07:02:53;;;;;;;7.90;5.13;;;10.40;70.20;;;;;;6266551;28;20200;-63
2022/04/08 07:05:54;;;;;;;5.63;5.00;;;10.60;69.70;;;;;;6282092;28;20216;-64
2022/04/08 07:08:54;;;;;;;5.43;4.73;;;10.80;67.80;;;;;;6264560;28;20242;-64
2022/04/08 07:11:55;;;;;;;5.20;4.50;;;11.00;67.30;;;;;;6298001;28;20227;-64
2022/04/08 07:14:56;;;;;;;5.43;4.90;;;11.20;66.50;;;;;;6282185;28;20202;-64
2022/04/08 07:17:57;;;;;;;7.87;5.20;;;11.30;66.10;;;;;;6298609;28;20201;-63
2022/04/08 07:20:58;;;;;;;5.17;4.47;;;11.50;65.50;;;;;;6285369;28;20204;-64
2022/04/08 07:23:59;;;;;;;7.70;4.77;;;11.70;66.00;;;;;;6272601;28;20213;-64
2022/04/08 07:27:00;;;;;;;7.00;5.30;;;11.90;65.30;;;;;;6294974;28;20247;-64
2022/04/08 07:30:01;;;;;;;5.77;5.27;;;12.20;64.60;;;;;;6281219;28;20237;-64
2022/04/08 07:33:03;;;;;;;7.30;5.70;;;12.50;63.50;;;;;;6297856;28;20199;-64
2022/04/08 07:36:04;;;;;;;8.30;5.63;;;12.80;63.30;;;;;;6280346;28;20201;-64
2022/04/08 07:39:05;;;;;;;6.43;5.77;;;13.00;61.90;;;;;;6297456;28;20197;-64
2022/04/08 07:42:07;;;;;;;6.83;5.83;;;13.30;60.90;;;;;;6281366;28;20287;-64
2022/04/08 07:45:09;;;;;;;6.57;5.60;;;13.60;60.40;;;;;;6298044;28;20223;-64
2022/04/08 07:48:09;;;;;;;5.60;5.00;;;13.80;58.80;;;;;;6280538;28;20197;-64
2022/04/08 07:51:10;;;;;;;6.70;5.80;;;14.00;60.00;;;;;;6297532;28;20283;-64
2022/04/08 07:54:11;;;;;;;8.30;6.17;;;14.30;57.80;;;;;;6277780;28;20200;-64
2022/04/08 07:57:15;;;;;;;5.43;4.90;;;14.40;57.10;;;;;;6264532;28;20189;-64
2022/04/08 08:00:21;;;;;;;5.93;5.30;;;14.60;56.50;;;;;;6281617;28;20200;-65
2022/04/08 08:03:21;;;;;;;6.30;5.70;;;14.80;57.30;;;;;;6263596;28;20201;-64
2022/04/08 08:06:22;;;;;;;7.13;5.67;;;14.80;55.90;;;;;;6281158;28;20191;-65
2022/04/08 08:09:23;;;;;;;9.50;5.57;;;15.00;56.30;;;;;;6280269;28;20197;-65
2022/04/08 08:12:24;;;;;;;9.73;5.83;;;15.00;55.00;;;;;;6277944;28;20201;-65
2022/04/08 08:15:25;;;;;;;5.83;5.33;;;15.20;56.30;;;;;;6281055;28;20201;-65
2022/04/08 08:18:26;;;;;;;8.27;6.80;;;15.20;54.70;;;;;;6280734;28;20297;-65
2022/04/08 08:21:27;;;;;;;6.43;5.83;;;15.30;54.70;;;;;;6280425;28;20197;-65
2022/04/08 08:24:28;;;;;;;6.87;5.90;;;15.30;54.80;;;;;;6279143;28;20303;-65
2022/04/08 08:27:39;;;;;;;8.27;6.10;;;15.40;55.70;;;;;;6278809;28;20201;-65
2022/04/08 08:30:47;;;;;;;6.33;5.73;;;15.50;55.40;;;;;;6345815;27;20797;-65
2022/04/08 08:33:49;;;;;;;8.17;5.97;;;15.50;55.00;;;;;;6300557;28;20196;-65
2022/04/08 08:36:51;;;;;;;10.20;6.03;;;15.70;54.80;;;;;;6302533;28;20191;-65
2022/04/08 08:39:55;;;;;;;8.10;5.80;;;15.80;54.40;;;;;;6303173;28;20195;-65
2022/04/08 08:42:57;;;;;;;10.20;6.10;;;16.00;54.30;;;;;;6291413;28;20192;-65
2022/04/08 08:46:02;;;;;;;7.00;6.20;;;16.00;54.40;;;;;;6302832;28;20187;-65
2022/04/08 08:49:04;;;;;;;11.97;6.43;;;16.10;53.70;;;;;;6302985;28;20208;-65
2022/04/08 08:52:07;;;;;;;7.10;6.27;;;16.00;52.40;;;;;;6327960;28;20176;-65
2022/04/08 08:55:08;;;;;;;7.77;6.40;;;16.10;53.50;;;;;;6322656;28;20631;-65
2022/04/08 08:58:09;;;;;;;6.80;6.20;;;16.20;52.80;;;;;;6311302;28;20191;-65
2022/04/08 09:01:11;;;;;;;7.37;6.67;;;16.30;52.70;;;;;;6310768;28;20198;-65
2022/04/08 09:04:12;;;;;;;8.00;6.43;;;16.60;51.50;;;;;;6327373;28;20188;-65
2022/04/08 09:07:29;;;;;;;9.63;7.57;;;16.90;51.90;;;;;;6293930;28;20194;-65
2022/04/08 09:10:35;;;;;;;9.20;7.50;;;16.80;51.90;;;;;;6327325;28;20224;-65
2022/04/08 09:13:48;;;;;;;8.03;7.23;;;16.90;50.30;;;;;;6317382;28;20193;-65
2022/04/08 09:16:49;;;;;;;7.97;7.17;;;16.90;51.00;;;;;;6316571;28;20201;-65
2022/04/08 09:19:51;;;;;;;7.13;6.43;;;17.20;51.10;;;;;;6310322;28;20197;-65
2022/04/08 09:22:55;;;;;;;7.17;6.47;;;17.40;49.40;;;;;;6302076;28;20196;-65
2022/04/08 09:26:04;;;;;;;7.30;6.60;;;17.70;49.70;;;;;;6302036;28;20192;-65
2022/04/08 09:29:05;;;;;;;8.53;6.87;;;17.80;48.90;;;;;;6313696;28;20268;-65
2022/04/08 09:32:11;;;;;;;6.93;5.43;;;17.90;49.40;;;;;;6327106;28;20198;-65
2022/04/08 09:35:23;;;;;;;10.30;6.53;;;18.00;49.20;;;;;;6309568;28;20222;-64
2022/04/08 09:38:30;;;;;;;9.50;6.67;;;18.20;48.60;;;;;;6311750;28;20256;-65
2022/04/08 09:41:42;;;;;;;8.80;6.57;;;18.20;48.50;;;;;;6288501;28;20201;-66
2022/04/08 09:44:43;;;;;;;8.30;6.70;;;18.20;48.20;;;;;;6285077;28;20190;-66
2022/04/08 09:47:44;;;;;;;6.20;5.60;;;17.80;48.70;;;;;;6285072;28;20301;-66
2022/04/08 09:50:47;;;;;;;6.80;6.03;;;18.00;48.80;;;;;;6268489;28;20217;-66
2022/04/08 09:54:00;;;;;;;7.80;6.33;;;18.10;48.80;;;;;;6284675;28;20208;-66
2022/04/08 09:57:01;;;;;;;8.33;5.70;;;18.20;48.30;;;;;;6291367;28;20189;-66
2022/04/08 10:00:04;;;;;;;6.23;5.50;;;17.90;49.00;;;;;;6275217;28;20314;-66
2022/04/08 10:03:06;;;;;;;6.20;5.60;;;18.00;48.30;;;;;;6292726;28;20197;-66
2022/04/08 10:06:08;;;;;;;6.50;5.83;;;18.30;47.30;;;;;;6276965;28;20194;-66
2022/04/08 10:09:17;;;;;;;6.87;5.83;;;18.20;47.10;;;;;;6283934;28;20209;-65
2022/04/08 10:12:55;;;;;;;6.17;5.63;;;18.40;48.20;;;;;;6271720;28;20197;-65
2022/04/08 10:15:58;;;;;;;7.20;5.70;;;18.50;47.30;;;;;;6292632;28;20181;-61
2022/04/08 10:19:04;;;;;;;6.73;6.03;;;18.50;47.30;;;;;;6277979;28;20184;-61
2022/04/08 10:22:16;;;;;;;9.13;6.00;;;18.60;47.20;;;;;;6264849;28;20201;-62
2022/04/08 10:25:18;;;;;;;9.03;5.90;;;18.70;47.10;;;;;;6268781;28;20212;-62
2022/04/08 10:28:19;;;;;;;6.37;5.33;;;18.80;47.30;;;;;;6301783;28;20260;-62
2022/04/08 10:31:25;;;;;;;6.40;5.70;;;18.70;47.30;;;;;;6248578;28;20186;-62
2022/04/08 10:34:26;;;;;;;5.37;4.87;;;18.50;47.00;;;;;;6271299;28;20238;-62
2022/04/08 10:37:27;;;;;;;7.20;4.63;;;18.40;47.60;;;;;;6269652;28;20196;-62
2022/04/08 10:40:40;;;;;;;6.43;5.30;;;18.70;47.50;;;;;;6266734;28;20196;-67
2022/04/08 10:43:45;;;;;;;7.00;5.43;;;18.70;47.10;;;;;;6303414;28;20189;-68
2022/04/08 10:46:51;;;;;;;7.40;6.40;;;18.60;47.50;;;;;;6308349;28;20185;-67
2022/04/08 10:49:54;;;;;;;8.30;5.70;;;18.50;47.00;;;;;;6308698;28;20210;-68
2022/04/08 10:53:09;;;;;;;7.80;5.60;;;18.50;47.10;;;;;;6307339;28;20185;-67
2022/04/08 10:56:14;;;;;;;8.43;6.33;;;18.30;48.30;;;;;;6287161;28;20197;-67
2022/04/08 10:59:26;;;;;;;7.43;5.70;;;18.40;47.80;;;;;;6299938;28;20204;-67
2022/04/08 11:02:40;;;;;;;5.87;5.37;;;18.20;47.60;;;;;;6282985;28;20167;-67
2022/04/08 11:05:41;;;;;;;7.43;6.70;;;18.10;49.10;;;;;;6295028;28;20197;-67
2022/04/08 11:08:43;;;;;;;9.03;6.97;;;17.90;48.60;;;;;;6291458;28;20212;-68
2022/04/08 11:11:47;;;;;;;7.97;6.80;;;17.80;49.10;;;;;;6270630;28;20247;-67
2022/04/08 11:15:02;;;;;;;9.43;7.80;;;17.80;49.30;;;;;;6282251;28;20194;-68
2022/04/08 11:18:06;;;;;;;8.03;7.23;;;17.40;50.40;;;;;;6282648;28;20228;-67
2022/04/08 11:21:19;;;;;;;7.40;6.50;;;17.30;50.70;;;;;;6272751;28;20188;-67
2022/04/08 11:24:20;;;;;;;8.77;7.30;;;17.50;50.90;;;;;;6307371;28;20185;-69
2022/04/08 11:27:21;;;;;;;11.23;8.30;;;18.00;49.00;;;;;;6281990;28;20279;-65
2022/04/08 11:30:23;;;;;;;10.97;9.60;;;18.60;48.30;;;;;;6265628;28;20240;-68
2022/04/08 11:33:25;;;;;;;12.47;10.00;;;19.20;46.20;;;;;;6282641;28;20182;-64
2022/04/08 11:36:26;;;;;;;11.97;9.97;;;19.30;46.90;;;;;;6273958;28;20189;-67
2022/04/08 11:39:27;;;;;;;11.23;9.60;;;19.30;45.60;;;;;;6298687;28;20188;-67
2022/04/08 11:42:28;;;;;;;12.47;9.47;;;18.80;45.40;;;;;;6270654;28;20188;-66
2022/04/08 11:45:30;;;;;;;12.77;9.87;;;18.50;47.10;;;;;;6290323;28;20199;-66
2022/04/08 11:48:38;;;;;;;11.30;10.20;;;18.60;46.90;;;;;;6267165;28;20263;-66
2022/04/08 11:51:39;;;;;;;12.33;9.70;;;18.60;47.60;;;;;;6265029;28;20193;-66
2022/04/08 11:54:40;;;;;;;13.70;11.07;;;18.30;49.50;;;;;;6271918;28;20199;-66
2022/04/08 11:57:41;;;;;;;13.57;10.77;;;18.20;48.00;;;;;;6265409;28;20213;-67
2022/04/08 12:00:42;;;;;;;10.93;9.77;;;18.20;47.90;;;;;;6248812;28;20205;-65
2022/04/08 12:03:42;;;;;;;11.63;10.43;;;18.10;49.40;;;;;;6264895;28;20220;-67
2022/04/08 12:06:48;;;;;;;11.50;10.33;;;18.00;49.30;;;;;;6265154;28;20259;-66
2022/04/08 12:09:49;;;;;;;10.53;9.43;;;17.70;49.60;;;;;;6281573;28;20213;-66
2022/04/08 12:12:52;;;;;;;11.30;9.60;;;17.50;50.50;;;;;;6269353;28;20189;-66
2022/04/08 12:15:57;;;;;;;11.07;9.43;;;17.30;51.40;;;;;;6265187;28;20239;-67
2022/04/08 12:18:59;;;;;;;10.47;8.60;;;17.30;51.10;;;;;;6281783;28;20273;-67
2022/04/08 12:21:59;;;;;;;10.40;9.00;;;17.30;51.50;;;;;;6265073;28;20281;-66
2022/04/08 12:25:00;;;;;;;9.77;8.77;;;17.30;52.30;;;;;;6264452;28;20222;-67
2022/04/08 12:28:01;;;;;;;11.10;8.20;;;17.60;51.40;;;;;;6268241;28;20193;-64
2022/04/08 12:31:16;;;;;;;10.50;8.57;;;17.70;52.10;;;;;;6287035;28;20189;-63
2022/04/08 12:34:18;;;;;;;10.20;8.40;;;17.60;50.90;;;;;;6285810;28;20192;-63
2022/04/08 12:37:18;;;;;;;10.17;8.07;;;17.70;51.60;;;;;;6278868;28;20194;-62
2022/04/08 12:40:20;;;;;;;9.00;8.10;;;17.80;51.60;;;;;;6256621;28;20210;-63
2022/04/08 12:43:21;;;;;;;9.20;8.17;;;18.20;50.90;;;;;;6267645;28;20185;-66
2022/04/08 12:46:22;;;;;;;10.60;7.90;;;18.70;49.10;;;;;;6265384;28;20206;-67
2022/04/08 12:49:23;;;;;;;8.33;6.93;;;18.90;48.70;;;;;;6266098;28;20223;-67
2022/04/08 12:52:24;;;;;;;11.20;7.63;;;19.30;47.40;;;;;;6265953;28;20185;-67
2022/04/08 12:55:25;;;;;;;8.77;7.30;;;19.80;47.80;;;;;;6278547;28;20180;-67
2022/04/08 12:58:27;;;;;;;8.60;7.17;;;20.60;45.40;;;;;;6278792;28;20220;-66
2022/04/08 13:01:28;;;;;;;9.17;8.10;;;20.90;44.20;;;;;;6292839;28;20277;-67
2022/04/08 13:04:29;;;;;;;8.40;7.60;;;20.70;44.70;;;;;;6301380;28;20212;-68
2022/04/08 13:07:30;;;;;;;10.00;7.30;;;20.90;43.50;;;;;;6281128;28;20184;-68
2022/04/08 13:10:30;;;;;;;8.00;6.83;;;20.90;43.60;;;;;;6280246;28;20649;-67
2022/04/08 13:13:31;;;;;;;7.93;6.83;;;21.30;43.60;;;;;;6273000;28;20215;-67
2022/04/08 13:16:32;;;;;;;8.27;7.17;;;22.30;42.10;;;;;;6269343;28;20184;-67
2022/04/08 13:19:33;;;;;;;10.33;8.20;;;22.20;41.90;;;;;;6294204;28;20199;-67
2022/04/08 13:22:34;;;;;;;12.20;8.47;;;22.50;40.00;;;;;;6299671;28;20193;-67
2022/04/08 13:25:34;;;;;;;7.40;6.60;;;23.20;40.80;;;;;;6269105;28;20280;-67
2022/04/08 13:28:35;;;;;;;10.40;7.20;;;24.10;38.50;;;;;;6286755;28;20264;-65
2022/04/08 13:31:40;;;;;;;9.20;7.50;;;23.60;37.90;;;;;;6309413;28;20180;-68
2022/04/08 13:34:41;;;;;;;9.90;7.00;;;23.10;39.10;;;;;;6284654;28;20200;-71
2022/04/08 13:37:42;;;;;;;8.23;6.53;;;22.70;40.50;;;;;;6301314;28;20180;-71
2022/04/08 13:40:43;;;;;;;7.50;6.13;;;22.20;41.80;;;;;;6284515;28;20194;-71
2022/04/08 13:43:44;;;;;;;7.87;7.03;;;21.90;42.20;;;;;;6273797;28;20192;-71
2022/04/08 13:46:45;;;;;;;8.87;6.60;;;21.60;42.10;;;;;;6294381;28;20192;-72
2022/04/08 13:49:45;;;;;;;8.07;6.97;;;21.60;43.10;;;;;;6284405;28;20217;-68
2022/04/08 13:52:46;;;;;;;9.00;7.30;;;21.80;42.50;;;;;;6268166;28;20173;-72
2022/04/08 13:55:47;;;;;;;10.87;7.13;;;22.10;41.80;;;;;;6268091;28;20193;-71
2022/04/08 13:58:48;;;;;;;9.50;6.23;;;21.70;42.60;;;;;;6298182;28;20226;-72
2022/04/08 14:01:49;;;;;;;9.77;7.03;;;21.50;43.00;;;;;;6276628;28;20189;-69
2022/04/08 14:04:50;;;;;;;7.93;6.90;;;21.20;43.90;;;;;;6292690;28;20338;-71
2022/04/08 14:07:51;;;;;;;9.23;7.23;;;21.00;44.70;;;;;;6293014;28;20195;-71
2022/04/08 14:10:51;;;;;;;10.80;7.30;;;20.80;46.10;;;;;;6288305;28;20223;-71
2022/04/08 14:13:52;;;;;;;8.67;6.90;;;20.40;47.30;;;;;;6281948;28;20184;-71
2022/04/08 14:16:53;;;;;;;13.00;7.63;;;20.50;46.50;;;;;;6292135;28;20187;-71
2022/04/08 14:19:54;;;;;;;11.07;7.43;;;20.50;45.80;;;;;;6283918;28;20191;-71
2022/04/08 14:22:55;;;;;;;8.67;7.37;;;20.60;45.40;;;;;;6303443;28;20188;-71
2022/04/08 14:25:56;;;;;;;11.73;8.40;;;20.80;45.20;;;;;;6270242;28;20225;-70
2022/04/08 14:28:56;;;;;;;9.83;7.73;;;21.30;43.60;;;;;;6296297;28;20241;-70
2022/04/08 14:31:57;;;;;;;13.63;8.57;;;21.50;42.10;;;;;;6316946;28;20177;-70
2022/04/08 14:34:58;;;;;;;12.23;7.37;;;21.60;41.70;;;;;;6300693;28;20194;-70
2022/04/08 14:37:59;;;;;;;12.83;8.87;;;21.50;42.10;;;;;;6277942;28;20196;-70
2022/04/08 14:41:00;;;;;;;11.07;9.20;;;21.60;40.60;;;;;;6271751;28;20188;-70
2022/04/08 14:44:01;;;;;;;12.47;7.77;;;22.60;38.00;;;;;;6283873;28;20192;-70
2022/04/08 14:47:01;;;;;;;20.20;7.80;;;23.20;37.60;;;;;;6282412;28;20248;-70
2022/04/08 14:50:03;;;;;;;10.17;7.00;;;23.80;36.10;;;;;;6303794;28;20215;-69
2022/04/08 14:53:04;;;;;;;11.47;7.93;;;24.00;35.80;;;;;;6302335;28;20216;-67
2022/04/08 14:56:05;;;;;;;8.10;7.03;;;24.60;36.00;;;;;;6307542;28;20180;-67
2022/04/08 14:59:06;;;;;;;9.93;7.33;;;24.60;34.40;;;;;;6280294;28;20219;-67
2022/04/08 15:02:11;;;;;;;9.70;7.27;;;24.40;34.70;;;;;;6279376;28;20189;-67
2022/04/08 15:05:12;;;;;;;9.77;7.10;;;24.20;34.60;;;;;;6303956;28;20216;-67
2022/04/08 15:08:13;;;;;;;7.80;6.20;;;23.70;35.50;;;;;;6273301;28;20202;-66
2022/04/08 15:11:14;;;;;;;8.33;6.23;;;23.20;36.40;;;;;;6288738;28;20192;-67
2022/04/08 15:14:14;;;;;;;9.47;6.97;;;22.40;37.80;;;;;;6283377;28;20239;-67
2022/04/08 15:17:16;;;;;;;8.30;5.50;;;21.80;39.60;;;;;;6266608;28;20192;-66
2022/04/08 15:20:18;;;;;;;7.50;5.70;;;21.60;39.50;;;;;;6298342;28;20260;-66
2022/04/08 15:23:19;;;;;;;5.90;5.33;;;21.30;40.10;;;;;;6285176;28;20185;-66
2022/04/08 15:26:20;;;;;;;11.23;5.60;;;20.90;41.30;;;;;;6269039;28;20196;-66
2022/04/08 15:29:21;;;;;;;7.97;5.10;;;20.50;41.40;;;;;;6274847;28;20243;-66
2022/04/08 15:32:25;;;;;;;6.47;5.17;;;20.20;42.40;;;;;;6266899;28;20275;-66
2022/04/08 15:35:26;;;;;;;7.57;5.10;;;20.00;43.50;;;;;;6283063;28;20189;-66
2022/04/08 15:38:27;;;;;;;5.90;4.40;;;19.80;44.30;;;;;;6274890;28;20196;-66
2022/04/08 15:41:28;;;;;;;4.23;2.90;;;19.70;46.50;;;;;;6298937;28;20181;-66
2022/04/08 15:44:29;;;;;;;5.90;3.07;;;19.30;42.80;;;;;;6281978;28;20198;-66
2022/04/08 15:47:30;;;;;;;4.13;2.60;;;19.20;42.90;;;;;;6282149;28;20185;-66